Главная страница
METAR-TAF:

METAR-TAF

Аэропорты :

Уагадугу, Буркина-Фасо

широта: 12-21N, долгота: 001-31W, высота над уровнем моря: 316 м

Текущие метеонаблюдения

Эта сводка был подготовлена 48 минут назад, в 07:00 UTC
Ветер 5 Узел от восточно-юго-восточный
Температура 25°C
Влажность 41%
Давление 1014 hPa
Видимость: 6000 м

METAR: DFFD 140700Z 12005KT 6000 25/11 Q1014 TEMPO 4000 DU

Время: 07:48 (07:48 UTC)

Прогноз

Эта сводка был подготовлена 2 часа и 48 минут назад, в 05:00 UTC
Прогноз действительный с 14-го 06 UTC до 15-го 12 UTC
Ветер 10 Узел от восточный
Видимость: 8000 м
временами
С 14-го 06 UTC до 14-го 10 UTC
Видимость: 4000 м
мгла
временами
С 14-го 17 UTC до 14-го 20 UTC
Видимость: 3500 м
мгла

TAF: DFFD 140500Z 1406/1512 10010KT 8000 NSC TEMPO 1406/1410 4000 HZ TEMPO 1417/1420 3500 HZ

Метеонаблюдения и прогнозы для более 4000 аэропортов (сводки METAR и TAF).

Имеющиеся станции представлены на карте желтыми и красными точками.

Чтобы увидеть название станции, наведите на нее мышь.

Затем щелкните, чтобы увидеть метеонаблюдения и метеопрогнозы.

Управление картой: чтобы увеличить масштаб, щелкните зеленые кнопки с черным крестиком; чтобы уменьшить масштаб, щелкните зеленую кнопку с тире; для просмотра соседних карт щелкайте зеленые стрелки.


METAR-TAF: